createdAt,value
2018-12-30T00:00:57.342Z,31.40
2018-12-30T00:03:25.154Z,31.30
2018-12-30T00:05:53.099Z,31.40
2018-12-30T00:08:20.938Z,31.40
2018-12-30T00:10:48.663Z,31.40
2018-12-30T00:13:16.323Z,31.50
2018-12-30T00:15:44.045Z,32.00
2018-12-30T00:18:11.765Z,31.20
2018-12-30T00:20:39.665Z,31.30
2018-12-30T00:23:07.387Z,31.20
2018-12-30T00:25:35.324Z,31.20
2018-12-30T00:28:03.016Z,31.10
2018-12-30T00:30:30.749Z,31.20
2018-12-30T00:32:58.475Z,31.10
2018-12-30T00:35:26.199Z,31.20
2018-12-30T00:37:53.847Z,31.20
2018-12-30T00:40:21.861Z,31.20
2018-12-30T00:42:49.627Z,31.10
2018-12-30T00:45:17.323Z,31.40
2018-12-30T00:47:45.055Z,31.40
2018-12-30T00:50:12.719Z,31.40
2018-12-30T00:52:40.403Z,31.30
2018-12-30T00:55:08.417Z,31.40
2018-12-30T00:57:36.110Z,32.00
2018-12-30T01:00:04.898Z,31.40
2018-12-30T01:02:32.620Z,31.40
2018-12-30T01:05:00.307Z,31.40
2018-12-30T01:07:28.017Z,31.40
2018-12-30T01:09:56.016Z,31.50
2018-12-30T01:12:23.773Z,31.50
2018-12-30T01:14:51.445Z,31.50
2018-12-30T01:17:19.159Z,31.50
2018-12-30T01:19:46.837Z,31.50
2018-12-30T01:22:14.496Z,31.50
2018-12-30T01:24:42.541Z,31.50
2018-12-30T01:27:10.274Z,31.60
2018-12-30T01:29:37.944Z,31.70
2018-12-30T01:32:05.603Z,31.70
2018-12-30T01:34:33.405Z,31.50
2018-12-30T01:37:01.017Z,31.60
2018-12-30T01:39:29.003Z,31.40
2018-12-30T01:41:56.733Z,31.40
2018-12-30T01:44:24.408Z,31.50
2018-12-30T01:46:52.137Z,31.40
2018-12-30T01:49:19.879Z,31.40
2018-12-30T01:51:47.559Z,31.40
2018-12-30T01:54:15.395Z,31.20
2018-12-30T01:56:43.061Z,31.30
2018-12-30T01:59:10.656Z,31.20
2018-12-30T02:01:38.387Z,31.30
2018-12-30T02:04:06.069Z,31.20
2018-12-30T02:06:33.761Z,31.10
2018-12-30T02:09:01.490Z,31.00
2018-12-30T02:11:29.113Z,31.10
2018-12-30T02:13:56.816Z,31.40
2018-12-30T02:16:24.555Z,31.10
2018-12-30T02:18:52.250Z,31.20
2018-12-30T02:21:20.133Z,31.20
2018-12-30T02:23:47.795Z,31.30
2018-12-30T02:26:15.448Z,31.20
2018-12-30T02:28:43.134Z,31.00
2018-12-30T02:31:10.853Z,31.10
2018-12-30T02:33:38.501Z,31.10
2018-12-30T02:36:06.227Z,31.00
2018-12-30T02:38:33.903Z,31.10
2018-12-30T02:41:01.623Z,31.10
2018-12-30T02:43:29.233Z,31.30
2018-12-30T02:45:56.849Z,31.30
2018-12-30T02:48:24.789Z,31.10
2018-12-30T02:50:52.450Z,31.30
2018-12-30T02:53:20.146Z,31.10
2018-12-30T02:55:47.886Z,31.00
2018-12-30T02:58:15.532Z,31.30
2018-12-30T03:00:43.185Z,31.30
2018-12-30T03:03:10.847Z,31.40
2018-12-30T03:05:38.457Z,31.60
2018-12-30T03:08:06.157Z,31.50
2018-12-30T03:10:35.621Z,31.80
2018-12-30T03:13:03.300Z,31.60
2018-12-30T03:15:30.947Z,31.90
2018-12-30T03:17:58.593Z,31.80
2018-12-30T03:20:26.255Z,31.80
2018-12-30T03:22:53.874Z,31.80
2018-12-30T03:25:21.602Z,31.80
2018-12-30T03:27:49.290Z,31.90
2018-12-30T03:30:16.981Z,31.80
2018-12-30T03:32:44.788Z,32.00
2018-12-30T03:35:12.387Z,31.80
2018-12-30T03:37:40.033Z,31.60
2018-12-30T03:40:08.554Z,32.10
2018-12-30T03:42:36.308Z,31.90
2018-12-30T03:45:04.853Z,31.90
2018-12-30T03:47:32.506Z,31.90
2018-12-30T03:50:00.163Z,32.00
2018-12-30T03:52:27.819Z,32.00
2018-12-30T03:54:55.467Z,32.10
2018-12-30T03:57:23.043Z,32.00
2018-12-30T03:59:50.680Z,32.20
2018-12-30T04:02:18.302Z,31.80
2018-12-30T04:04:45.992Z,31.80
2018-12-30T04:07:13.693Z,31.80
2018-12-30T04:09:41.300Z,31.80
2018-12-30T04:12:08.970Z,31.80
2018-12-30T04:14:36.628Z,31.70
2018-12-30T04:17:04.225Z,31.80
2018-12-30T04:19:31.830Z,31.70
2018-12-30T04:21:59.496Z,31.80
2018-12-30T04:24:27.174Z,31.90
2018-12-30T04:26:54.820Z,31.40
2018-12-30T04:29:22.501Z,31.60
2018-12-30T04:31:50.161Z,31.60
2018-12-30T04:34:17.806Z,31.70
2018-12-30T04:36:45.533Z,31.60
2018-12-30T04:39:13.229Z,31.50
2018-12-30T04:41:40.871Z,31.60
2018-12-30T04:44:08.503Z,31.40
2018-12-30T04:46:36.220Z,31.70
2018-12-30T04:49:03.840Z,31.30
2018-12-30T04:51:31.451Z,31.40
2018-12-30T04:53:59.165Z,31.50
2018-12-30T04:56:26.784Z,31.50
2018-12-30T04:58:54.433Z,31.30
2018-12-30T05:01:22.259Z,32.50
2018-12-30T05:03:50.838Z,31.30
2018-12-30T05:06:18.427Z,31.50
2018-12-30T05:08:46.070Z,31.60
2018-12-30T05:11:13.676Z,31.40
2018-12-30T05:13:41.288Z,31.60
2018-12-30T05:16:08.983Z,31.60
2018-12-30T05:18:36.649Z,31.80
2018-12-30T05:21:04.325Z,31.90
2018-12-30T05:23:32.009Z,32.10
2018-12-30T05:25:59.625Z,31.90
2018-12-30T05:28:27.247Z,32.10
2018-12-30T05:30:54.964Z,32.10
2018-12-30T05:33:22.563Z,32.20
2018-12-30T05:35:51.266Z,32.10
2018-12-30T05:38:19.099Z,32.00
2018-12-30T05:40:46.792Z,31.90
2018-12-30T05:43:14.419Z,31.90
2018-12-30T05:45:42.081Z,32.20
2018-12-30T05:48:09.691Z,32.30
2018-12-30T05:50:37.293Z,32.10
2018-12-30T05:53:04.935Z,32.20
2018-12-30T05:55:32.533Z,32.50
2018-12-30T05:58:00.138Z,32.40
2018-12-30T06:00:27.842Z,32.30
2018-12-30T06:02:55.429Z,32.10
2018-12-30T06:05:23.055Z,32.10
2018-12-30T06:07:52.706Z,32.10
2018-12-30T06:10:20.367Z,32.10
2018-12-30T06:12:47.946Z,32.30
2018-12-30T06:15:15.641Z,32.20
2018-12-30T06:17:43.367Z,32.20
2018-12-30T06:20:10.984Z,32.40
2018-12-30T06:22:38.596Z,32.60
2018-12-30T06:25:06.265Z,32.50
2018-12-30T06:27:33.947Z,32.40
2018-12-30T06:30:01.851Z,32.90
2018-12-30T06:32:29.517Z,32.80
2018-12-30T06:34:57.085Z,32.90
2018-12-30T06:37:24.732Z,32.90
2018-12-30T06:39:52.347Z,32.80
2018-12-30T06:42:19.968Z,32.90
2018-12-30T06:44:47.725Z,32.90
2018-12-30T06:47:15.404Z,33.00
2018-12-30T06:49:43.112Z,33.10
2018-12-30T06:52:10.739Z,33.00
2018-12-30T06:54:38.336Z,33.00
2018-12-30T06:57:05.931Z,33.10
2018-12-30T06:59:33.653Z,33.00
2018-12-30T07:02:01.361Z,33.00
2018-12-30T07:04:28.950Z,33.00
2018-12-30T07:06:56.613Z,33.00
2018-12-30T07:09:24.226Z,33.00
2018-12-30T07:11:51.821Z,33.00
2018-12-30T07:14:19.473Z,33.10
2018-12-30T07:16:47.081Z,34.30
2018-12-30T07:19:14.767Z,33.90
2018-12-30T07:21:42.493Z,34.00
2018-12-30T07:24:10.153Z,33.50
2018-12-30T07:26:37.821Z,34.40
2018-12-30T07:29:05.533Z,35.20
2018-12-30T07:31:33.141Z,33.70
2018-12-30T07:34:00.806Z,34.10
2018-12-30T07:36:28.536Z,34.30
2018-12-30T07:38:56.124Z,34.10
2018-12-30T07:41:23.713Z,34.30
2018-12-30T07:43:51.382Z,33.50
2018-12-30T07:46:18.983Z,33.30
2018-12-30T07:48:46.601Z,33.70
2018-12-30T07:51:15.006Z,33.30
2018-12-30T07:53:42.693Z,33.30
2018-12-30T07:56:10.287Z,33.30
2018-12-30T07:58:37.972Z,32.80
2018-12-30T08:01:05.662Z,33.30
2018-12-30T08:03:33.348Z,33.30
2018-12-30T08:06:01.127Z,33.30
2018-12-30T08:08:28.850Z,33.30
2018-12-30T08:10:56.531Z,33.20
2018-12-30T08:13:24.228Z,33.30
2018-12-30T08:15:51.898Z,33.30
2018-12-30T08:18:19.574Z,33.30
2018-12-30T08:20:47.302Z,33.10
2018-12-30T08:23:21.425Z,33.10
2018-12-30T08:25:44.296Z,33.20
2018-12-30T08:28:12.028Z,33.10
2018-12-30T08:30:39.621Z,32.60
2018-12-30T08:33:07.299Z,32.50
2018-12-30T08:35:35.013Z,32.60
2018-12-30T08:38:02.617Z,32.90
2018-12-30T08:40:30.307Z,31.60
2018-12-30T08:42:57.994Z,31.60
2018-12-30T08:45:25.618Z,31.10
2018-12-30T08:47:53.288Z,30.80
2018-12-30T08:50:21.071Z,30.60
2018-12-30T08:52:52.655Z,30.50
2018-12-30T08:55:20.346Z,30.50
2018-12-30T08:57:48.102Z,30.10
2018-12-30T09:00:15.712Z,30.00
2018-12-30T09:02:43.365Z,29.80
2018-12-30T09:05:11.047Z,29.90
2018-12-30T09:07:38.750Z,30.10
2018-12-30T09:10:07.241Z,30.20
2018-12-30T09:12:34.829Z,30.50
2018-12-30T09:15:02.461Z,30.30
2018-12-30T09:17:30.124Z,30.30
2018-12-30T09:19:57.758Z,30.60
2018-12-30T09:22:25.415Z,30.80
2018-12-30T09:24:53.139Z,31.10
2018-12-30T09:27:20.729Z,31.40
2018-12-30T09:29:48.325Z,31.30
2018-12-30T09:32:16.175Z,31.10
2018-12-30T09:34:43.866Z,31.00
2018-12-30T09:37:11.615Z,30.80
2018-12-30T09:39:39.361Z,30.80
2018-12-30T09:42:06.963Z,30.70
2018-12-30T09:44:34.668Z,30.70
2018-12-30T09:47:02.415Z,30.60
2018-12-30T09:49:30.099Z,30.50
2018-12-30T09:51:58.757Z,30.60
2018-12-30T09:54:26.765Z,30.50
2018-12-30T09:56:54.450Z,30.60
2018-12-30T09:59:22.065Z,30.70
2018-12-30T10:01:49.721Z,30.70
2018-12-30T10:04:17.421Z,30.60
2018-12-30T10:06:45.107Z,30.70
2018-12-30T10:09:12.782Z,30.70
2018-12-30T10:11:40.524Z,30.90
2018-12-30T10:14:08.133Z,31.40
2018-12-30T10:16:35.860Z,31.30
2018-12-30T10:19:03.527Z,39.90
2018-12-30T10:21:31.154Z,39.70
2018-12-30T10:23:58.866Z,38.70
2018-12-30T10:26:26.517Z,36.30
2018-12-30T10:28:54.228Z,35.80
2018-12-30T10:31:22.021Z,35.20
2018-12-30T10:33:49.679Z,34.10
2018-12-30T10:36:17.272Z,34.00
2018-12-30T10:38:44.940Z,34.00
2018-12-30T10:41:12.647Z,34.00
2018-12-30T10:43:40.286Z,33.90
2018-12-30T10:46:07.950Z,33.50
2018-12-30T10:48:36.318Z,33.50
2018-12-30T10:51:04.030Z,33.10
2018-12-30T10:53:31.661Z,33.00
2018-12-30T10:55:59.423Z,32.80
2018-12-30T10:58:27.018Z,32.80
2018-12-30T11:00:54.681Z,32.80
2018-12-30T11:03:22.518Z,32.80
2018-12-30T11:05:50.134Z,32.90
2018-12-30T11:08:17.816Z,33.30
2018-12-30T11:10:45.456Z,33.70
2018-12-30T11:13:13.090Z,33.60
2018-12-30T11:15:40.726Z,33.60
2018-12-30T11:18:08.423Z,33.60
2018-12-30T11:20:36.072Z,33.70
2018-12-30T11:23:03.674Z,33.60
2018-12-30T11:25:31.379Z,33.70
2018-12-30T11:27:59.071Z,33.60
2018-12-30T11:30:26.739Z,34.20
2018-12-30T11:32:54.351Z,34.50
2018-12-30T11:35:22.026Z,34.70
2018-12-30T11:37:49.703Z,35.00
2018-12-30T11:40:17.301Z,34.60
2018-12-30T11:42:45.000Z,35.00
2018-12-30T11:45:12.666Z,35.00
2018-12-30T11:47:40.319Z,34.80
2018-12-30T11:50:08.682Z,34.30
2018-12-30T11:52:36.372Z,33.70
2018-12-30T11:55:04.092Z,33.50
2018-12-30T11:57:31.800Z,33.70
2018-12-30T11:59:59.459Z,33.40
2018-12-30T12:02:27.082Z,33.40
2018-12-30T12:04:54.923Z,33.40
2018-12-30T12:07:22.628Z,33.40
2018-12-30T12:09:50.290Z,33.50
2018-12-30T12:12:18.031Z,34.30
2018-12-30T12:14:45.636Z,33.40
2018-12-30T12:17:13.331Z,33.40
2018-12-30T12:19:41.062Z,33.80
2018-12-30T12:22:08.692Z,33.70
2018-12-30T12:24:36.330Z,33.70
2018-12-30T12:27:04.040Z,33.90
2018-12-30T12:29:31.653Z,34.10
2018-12-30T12:31:59.281Z,34.20
2018-12-30T12:34:26.942Z,34.30
2018-12-30T12:36:54.589Z,34.20
2018-12-30T12:39:22.330Z,34.20
2018-12-30T12:41:49.991Z,34.20
2018-12-30T12:44:17.614Z,34.40
2018-12-30T12:46:45.341Z,34.40
2018-12-30T12:49:13.057Z,34.40
2018-12-30T12:51:40.692Z,34.20
2018-12-30T12:54:09.092Z,34.20
2018-12-30T12:56:36.742Z,34.20
2018-12-30T12:59:04.473Z,34.40
2018-12-30T13:01:32.144Z,34.20
2018-12-30T13:03:59.779Z,34.40
2018-12-30T13:06:27.548Z,34.70
2018-12-30T13:08:55.190Z,34.70
2018-12-30T13:11:22.776Z,34.60
2018-12-30T13:13:50.528Z,34.70
2018-12-30T13:16:18.145Z,34.60
2018-12-30T13:18:45.838Z,34.70
2018-12-30T13:21:13.536Z,34.70
2018-12-30T13:23:41.223Z,34.90
2018-12-30T13:26:08.880Z,34.80
2018-12-30T13:28:36.545Z,34.90
2018-12-30T13:31:04.201Z,35.00
2018-12-30T13:33:31.839Z,34.80
2018-12-30T13:35:59.563Z,34.70
2018-12-30T13:38:28.463Z,34.50
2018-12-30T13:40:56.339Z,34.70
2018-12-30T13:43:24.265Z,34.60
2018-12-30T13:45:52.051Z,34.50
2018-12-30T13:48:19.629Z,34.50
2018-12-30T13:50:47.218Z,34.40
2018-12-30T13:53:14.865Z,35.00
2018-12-30T13:55:42.459Z,34.60
2018-12-30T13:58:11.039Z,34.40
2018-12-30T14:00:38.747Z,34.30
2018-12-30T14:03:06.440Z,34.20
2018-12-30T14:05:34.112Z,34.40
2018-12-30T14:08:01.924Z,34.40
2018-12-30T14:10:29.557Z,34.30
2018-12-30T14:12:57.185Z,34.30
2018-12-30T14:15:24.857Z,34.50
2018-12-30T14:17:52.545Z,34.50
2018-12-30T14:20:20.166Z,34.50
2018-12-30T14:22:47.902Z,34.50
2018-12-30T14:25:15.619Z,34.50
2018-12-30T14:27:43.309Z,34.80
2018-12-30T14:30:11.035Z,34.50
2018-12-30T14:32:38.630Z,34.50
2018-12-30T14:35:06.298Z,34.40
2018-12-30T14:37:33.985Z,34.10
2018-12-30T14:40:01.665Z,34.00
2018-12-30T14:42:29.263Z,34.00
2018-12-30T14:44:57.009Z,34.00
2018-12-30T14:47:24.704Z,33.90
2018-12-30T14:49:52.331Z,33.80
2018-12-30T14:52:20.035Z,33.30
2018-12-30T14:54:47.727Z,33.30
2018-12-30T14:57:15.465Z,33.20
2018-12-30T14:59:43.142Z,33.30
2018-12-30T15:02:10.841Z,33.20
2018-12-30T15:04:38.740Z,33.20
2018-12-30T15:07:06.346Z,33.20
2018-12-30T15:09:35.889Z,33.20
2018-12-30T15:12:03.289Z,33.20
2018-12-30T15:14:30.867Z,33.20
2018-12-30T15:16:59.555Z,33.20
2018-12-30T15:19:27.299Z,33.20
2018-12-30T15:21:54.926Z,33.20
2018-12-30T15:24:22.599Z,33.20
2018-12-30T15:26:50.265Z,33.20
2018-12-30T15:29:17.851Z,33.20
2018-12-30T15:31:45.463Z,33.20
2018-12-30T15:34:13.121Z,33.20
2018-12-30T15:36:40.745Z,33.20
2018-12-30T15:39:08.378Z,33.20
2018-12-30T15:41:36.103Z,33.20
2018-12-30T15:44:03.863Z,33.20
2018-12-30T15:46:31.533Z,33.20
2018-12-30T15:48:59.201Z,33.20
2018-12-30T15:51:26.881Z,33.20
2018-12-30T15:53:54.592Z,33.20
2018-12-30T15:56:22.193Z,33.20
2018-12-30T15:58:49.809Z,33.10
2018-12-30T16:01:17.526Z,33.10
2018-12-30T16:03:45.132Z,33.10
2018-12-30T16:06:12.711Z,33.10
2018-12-30T16:08:40.384Z,33.20
2018-12-30T16:11:08.006Z,33.60
2018-12-30T16:13:35.677Z,33.50
2018-12-30T16:16:03.328Z,33.70
2018-12-30T16:18:30.942Z,34.90
2018-12-30T16:20:58.643Z,34.80
2018-12-30T16:23:26.331Z,33.80
2018-12-30T16:25:53.961Z,33.80
2018-12-30T16:28:21.631Z,34.00
2018-12-30T16:30:49.283Z,34.10
2018-12-30T16:33:16.969Z,34.20
2018-12-30T16:35:44.677Z,34.40
2018-12-30T16:38:12.324Z,34.30
2018-12-30T16:40:39.911Z,33.70
2018-12-30T16:43:07.548Z,31.80
2018-12-30T16:45:35.142Z,30.60
2018-12-30T16:48:02.748Z,29.40
2018-12-30T16:50:30.400Z,29.20
2018-12-30T16:52:58.038Z,29.20
2018-12-30T16:55:25.637Z,29.00
2018-12-30T16:57:53.356Z,30.60
2018-12-30T17:00:21.842Z,30.80
2018-12-30T17:02:50.250Z,32.90
2018-12-30T17:05:18.569Z,33.90
2018-12-30T17:07:46.863Z,34.40
2018-12-30T17:10:14.460Z,35.10
2018-12-30T17:12:42.831Z,41.70
2018-12-30T17:15:11.134Z,35.90
2018-12-30T17:17:39.644Z,43.70
2018-12-30T17:20:08.063Z,41.80
2018-12-30T17:22:36.465Z,38.90
2018-12-30T17:25:06.167Z,31.90
2018-12-30T17:27:34.503Z,30.40
2018-12-30T17:30:02.895Z,31.40
2018-12-30T17:32:31.244Z,31.80
2018-12-30T17:34:59.546Z,32.30
2018-12-30T17:37:27.972Z,32.10
2018-12-30T17:39:56.333Z,32.70
2018-12-30T17:42:24.667Z,35.40
2018-12-30T17:44:53.012Z,33.80
2018-12-30T17:47:21.307Z,34.10
2018-12-30T17:49:48.892Z,34.10
2018-12-30T17:52:17.210Z,34.50
2018-12-30T17:54:44.917Z,34.60
2018-12-30T17:57:12.612Z,34.80
2018-12-30T17:59:40.298Z,34.80
2018-12-30T18:02:08.100Z,34.40
2018-12-30T18:04:35.795Z,33.50
2018-12-30T18:07:03.397Z,32.80
2018-12-30T18:09:31.067Z,32.30
2018-12-30T18:11:58.712Z,32.20
2018-12-30T18:14:26.386Z,33.10
2018-12-30T18:16:54.056Z,26.80
2018-12-30T18:19:21.772Z,24.60
2018-12-30T18:21:49.461Z,25.30
2018-12-30T18:24:17.170Z,24.60
2018-12-30T18:26:44.919Z,26.40
2018-12-30T18:29:12.589Z,26.80
2018-12-30T18:31:40.354Z,27.70
2018-12-30T18:34:08.059Z,28.20
2018-12-30T18:36:35.720Z,28.00
2018-12-30T18:39:04.820Z,28.20
2018-12-30T18:41:32.471Z,27.70
2018-12-30T18:44:00.220Z,27.80
2018-12-30T18:46:27.829Z,27.90
2018-12-30T18:48:55.490Z,27.90
2018-12-30T18:51:23.227Z,28.00
2018-12-30T18:53:50.857Z,28.10
2018-12-30T18:56:18.525Z,28.10
2018-12-30T18:58:46.217Z,28.10
2018-12-30T19:01:13.895Z,28.20
2018-12-30T19:03:41.560Z,28.60
2018-12-30T19:06:09.291Z,28.80
2018-12-30T19:08:36.943Z,29.10
2018-12-30T19:11:04.647Z,29.20
2018-12-30T19:13:32.307Z,29.20
2018-12-30T19:15:59.997Z,30.00
2018-12-30T19:18:27.733Z,29.60
2018-12-30T19:20:55.413Z,29.80
2018-12-30T19:23:23.028Z,30.00
2018-12-30T19:25:50.693Z,30.00
2018-12-30T19:28:19.523Z,29.80
2018-12-30T19:30:47.317Z,29.90
2018-12-30T19:33:14.907Z,29.80
2018-12-30T19:35:42.538Z,29.70
2018-12-30T19:38:10.307Z,29.80
2018-12-30T19:40:37.928Z,30.00
2018-12-30T19:43:05.522Z,30.00
2018-12-30T19:45:33.170Z,30.00
2018-12-30T19:48:00.779Z,30.20
2018-12-30T19:50:28.475Z,30.50
2018-12-30T19:52:56.223Z,30.60
2018-12-30T19:55:23.869Z,30.70
2018-12-30T19:57:51.588Z,30.80
2018-12-30T20:00:19.262Z,30.80
2018-12-30T20:02:46.965Z,31.00
2018-12-30T20:05:14.684Z,31.00
2018-12-30T20:07:42.355Z,31.20
2018-12-30T20:10:10.051Z,31.10
2018-12-30T20:12:37.755Z,31.40
2018-12-30T20:15:06.390Z,31.30
2018-12-30T20:17:34.060Z,31.50
2018-12-30T20:20:02.327Z,31.60
2018-12-30T20:22:30.021Z,31.80
2018-12-30T20:24:57.756Z,31.80
2018-12-30T20:27:25.470Z,32.00
2018-12-30T20:29:53.124Z,31.90
2018-12-30T20:32:29.593Z,31.90
2018-12-30T20:34:57.454Z,32.20
2018-12-30T20:37:25.205Z,32.30
2018-12-30T20:52:10.533Z,32.80
2018-12-30T20:54:38.313Z,32.90
2018-12-30T20:57:05.997Z,33.10
2018-12-30T20:59:33.683Z,32.90
2018-12-30T21:02:01.367Z,33.00
2018-12-30T21:04:29.069Z,33.20
2018-12-30T21:06:56.768Z,33.40
2018-12-30T21:09:24.857Z,33.40
2018-12-30T21:11:52.827Z,33.40
2018-12-30T21:14:20.640Z,33.40
2018-12-30T21:16:48.346Z,33.40
2018-12-30T21:19:15.977Z,33.40
2018-12-30T21:21:43.668Z,33.40
2018-12-30T21:24:11.294Z,33.40
2018-12-30T21:26:45.387Z,33.50
2018-12-30T21:29:08.387Z,33.40
2018-12-30T21:31:36.040Z,33.50
2018-12-30T21:34:09.092Z,33.40
2018-12-30T21:36:36.746Z,33.40
2018-12-30T21:39:06.176Z,33.40
2018-12-30T21:41:33.829Z,33.40
2018-12-30T21:44:01.410Z,33.40
2018-12-30T21:46:29.306Z,33.30
2018-12-30T21:48:57.069Z,33.40
2018-12-30T21:51:24.837Z,33.40
2018-12-30T21:53:52.558Z,33.40
2018-12-30T21:56:20.258Z,33.30
2018-12-30T21:58:47.865Z,33.40
2018-12-30T22:01:15.596Z,33.30
2018-12-30T22:03:59.585Z,33.40
2018-12-30T22:06:25.585Z,33.40
2018-12-30T22:08:53.191Z,33.30
2018-12-30T22:11:20.821Z,33.40
2018-12-30T22:13:48.513Z,33.40
2018-12-30T22:16:16.150Z,33.40
2018-12-30T22:18:43.772Z,33.40
2018-12-30T22:21:11.417Z,33.40
2018-12-30T22:23:39.048Z,33.40
2018-12-30T22:26:11.210Z,33.40
2018-12-30T22:28:38.906Z,33.50
2018-12-30T22:31:06.605Z,33.50
2018-12-30T22:33:34.202Z,33.50
2018-12-30T22:36:01.824Z,33.40
2018-12-30T22:38:29.598Z,33.50
2018-12-30T22:40:57.305Z,33.40
2018-12-30T22:43:24.956Z,33.40
2018-12-30T22:45:52.723Z,33.40
2018-12-30T22:48:20.484Z,33.40
2018-12-30T22:50:48.210Z,33.40
2018-12-30T22:53:15.935Z,33.40
2018-12-30T22:55:55.745Z,33.40
2018-12-30T22:58:25.173Z,33.40
2018-12-30T23:00:59.043Z,33.40
2018-12-30T23:03:33.720Z,33.40
2018-12-30T23:06:04.948Z,33.40
2018-12-30T23:08:33.053Z,33.40
2018-12-30T23:11:00.712Z,33.40
2018-12-30T23:13:28.361Z,33.40
2018-12-30T23:15:56.029Z,33.40
2018-12-30T23:18:23.652Z,33.40
2018-12-30T23:20:51.426Z,33.40
2018-12-30T23:23:19.170Z,34.00
2018-12-30T23:25:46.822Z,33.40
2018-12-30T23:28:14.496Z,33.40
2018-12-30T23:30:42.095Z,33.40
2018-12-30T23:33:09.734Z,33.40
2018-12-30T23:35:37.372Z,33.40
2018-12-30T23:38:05.044Z,33.40
2018-12-30T23:40:33.891Z,33.40
2018-12-30T23:43:01.474Z,33.40
2018-12-30T23:45:29.095Z,33.30
2018-12-30T23:47:56.866Z,33.30
2018-12-30T23:50:24.602Z,33.30
2018-12-30T23:52:52.272Z,33.30
2018-12-30T23:55:19.936Z,33.20
2018-12-30T23:57:47.590Z,33.30
